Léré Airport

TD-0004 · Mayo-Kebbi Ouest, Ciad

Storia di METAR TD-0004 · Léré Airport

Di seguito sono riportati i METAR degli ultimi giorni. Seleziona un anno per sfogliare i METAR più vecchi, dall'anno 2007 in poi.

15 luglio 2024

Tempo Codice Tempo meteorologico Temp. Vista Base nuvolosa Vento METAR/SPECI
17:00
M
31 °C 10 km+ 1.000 ft 220° 220° 3 kt METAR FKKL 151600Z 22003KT 130V280 9999 TS BKN010 SCT015CB 31/22 Q1013
16:00
V
27 °C 10 km+ - 270° 270° 13 kt METAR FKKL 151500Z 27013KT 9999 TS SCT010 SCT015CB 27/23 Q1013
15:00
V
0 °C 10 km+ - 360° 360° 0 kt METAR FKKL 151400Z /////KT 9999 TS SCT010 SCT015CB ///// Q1013
14:00
V
0 °C 8 km - 360° 360° 0 kt METAR FKKL 151300Z /////KT 8000 TSRA SCT010 SCT015CB ///// Q1014
13:00
V
30 °C 10 km+ - 140° 140° 4 kt METAR FKKL 151200Z 14004KT 060V220 9999 TS SCT020 SCT025CB 30/24 Q1014
12:00
V
31 °C 10 km+ - Var Var 2 kt METAR FKKL 151100Z VRB02KT 9999 SCT020 FEW025CB 31/24 Q1015
11:00
V
29 °C 10 km+ - 240° 240° 4 kt METAR FKKL 151000Z 24004KT 210V290 9999 SCT020 FEW025TCU 29/24 Q1016
10:00
V
27 °C 10 km+ - 250° 250° 4 kt METAR FKKL 150900Z 25004KT 200V290 9999 FEW025 27/25 Q1017

14 luglio 2024

Tempo Codice Tempo meteorologico Temp. Vista Base nuvolosa Vento METAR/SPECI
09:00
V
0 °C 10 km+ - 360° 360° 0 kt METAR FKKL 140800Z /////KT 9999 FEW025 ///// Q1017

13 luglio 2024

Tempo Codice Tempo meteorologico Temp. Vista Base nuvolosa Vento METAR/SPECI
10:00
V
0 °C 10 km+ - 360° 360° 0 kt METAR FKKL 130900Z /////KT 9999 FEW030 ///// Q1016
09:00
V
28 °C 10 km+ - 250° 250° 6 kt METAR FKKL 130800Z 25006KT 220V290 CAVOK 28/23 Q1016
08:00
V
0 °C 10 km+ - 360° 360° 0 kt METAR FKKL 130700Z /////KT CAVOK ///// Q1016
Segnala modifiche